Time;durP1;ratioP1;P1;durP2;ratioP2;P2;SDS_P1;SDS_P2;PMS_P1;PMS_P2;Temp;Humidity;BMP_temperature;BMP_pressure;BME280_temperature;BME280_humidity;BME280_pressure;Samples;Min_cycle;Max_cycle;Signal;HPM_P1;HPM_P2
2023/01/17 00:00:25;;;;;;;1.98;0.60;;;;;;;2.31;100.00;95051.94;4202838;28;20283;-74
2023/01/17 00:02:25;;;;;;;0.73;0.70;;;;;;;2.27;100.00;95053.94;4202460;28;20167;-74
2023/01/17 00:11:30;;;;;;;0.50;0.50;;;;;;;2.23;100.00;95056.72;4209110;28;20328;-75
2023/01/17 00:13:31;;;;;;;0.50;0.50;;;;;;;2.21;100.00;95064.53;4206197;28;20454;-75
2023/01/17 00:15:31;;;;;;;0.40;0.40;;;;;;;2.20;100.00;95057.53;4207366;28;20451;-74
2023/01/17 00:17:31;;;;;;;0.60;0.60;;;;;;;2.20;100.00;95065.72;4203320;28;20044;-74
2023/01/17 00:26:30;;;;;;;0.50;0.50;;;;;;;2.14;100.00;95082.91;4211512;28;20075;-74
2023/01/17 01:35:23;;;;;;;0.60;0.55;;;;;;;1.86;100.00;95206.66;4206725;28;20484;-74
2023/01/17 01:37:24;;;;;;;1.00;0.60;;;;;;;1.84;100.00;95206.28;4209406;28;20451;-75
2023/01/17 01:39:24;;;;;;;0.55;0.50;;;;;;;1.91;100.00;95211.69;4219031;28;20087;-75
2023/01/17 01:41:24;;;;;;;0.52;0.52;;;;;;;1.90;100.00;95219.09;4220393;28;20042;-75
2023/01/17 01:43:45;;;;;;;0.50;0.50;;;;;;;1.92;100.00;95229.59;4211853;28;20349;-74
2023/01/17 01:45:55;;;;;;;0.60;0.60;;;;;;;1.92;100.00;95218.69;4220337;28;20060;-75
2023/01/17 01:48:19;;;;;;;0.50;0.50;;;;;;;1.97;100.00;95227.19;4208890;28;20170;-75
2023/01/17 01:50:20;;;;;;;0.60;0.60;;;;;;;1.93;100.00;95226.47;4205172;28;20046;-75
2023/01/17 01:52:24;;;;;;;0.65;0.65;;;;;;;1.92;100.00;95230.38;4209388;28;20452;-74
2023/01/17 01:54:36;;;;;;;0.50;0.50;;;;;;;1.88;100.00;95239.72;4204053;28;20047;-75
2023/01/17 01:56:38;;;;;;;0.60;0.60;;;;;;;1.86;100.00;95236.63;4204249;28;20052;-75
2023/01/17 01:58:40;;;;;;;0.88;0.63;;;;;;;1.87;100.00;95238.19;4208993;28;20353;-75
2023/01/17 02:00:40;;;;;;;1.65;0.60;;;;;;;1.91;100.00;95245.19;4202200;28;20048;-75
2023/01/17 02:02:43;;;;;;;0.60;0.60;;;;;;;1.86;100.00;95247.53;4213251;28;20522;-75
2023/01/17 02:04:44;;;;;;;1.00;0.60;;;;;;;1.89;100.00;95250.22;4205149;28;20531;-75
2023/01/17 02:06:49;;;;;;;0.70;0.70;;;;;;;1.90;100.00;95245.56;4210368;28;20507;-75
2023/01/17 02:08:50;;;;;;;0.50;0.50;;;;;;;1.98;100.00;95244.31;4214987;28;20126;-75
2023/01/17 02:10:51;;;;;;;0.93;0.70;;;;;;;1.90;100.00;95251.00;4219264;27;20075;-75
2023/01/17 02:12:53;;;;;;;0.73;0.73;;;;;;;1.90;100.00;95253.72;4220117;28;20139;-75
2023/01/17 02:14:54;;;;;;;0.70;0.70;;;;;;;1.89;100.00;95250.22;4217219;28;20611;-75
2023/01/17 02:17:09;;;;;;;0.88;0.88;;;;;;;1.89;100.00;95247.50;4210349;28;20130;-75
2023/01/17 02:19:32;;;;;;;0.98;0.77;;;;;;;1.94;100.00;95246.31;4204118;28;20500;-74
2023/01/17 02:21:46;;;;;;;0.98;0.80;;;;;;;1.88;100.00;95237.00;4203629;28;20066;-75
2023/01/17 02:24:23;;;;;;;0.70;0.70;;;;;;;1.87;100.00;95246.38;4203192;28;20052;-74
2023/01/17 02:26:42;;;;;;;0.82;0.80;;;;;;;1.81;100.00;95250.69;4209256;28;20759;-75
2023/01/17 02:29:24;;;;;;;1.45;0.90;;;;;;;1.83;100.00;95251.84;4204967;28;20909;-75
2023/01/17 02:31:52;;;;;;;1.38;1.00;;;;;;;1.86;100.00;95258.44;4164872;28;20391;-74
2023/01/17 02:34:02;;;;;;;1.50;0.90;;;;;;;1.85;100.00;95256.91;4218308;28;20416;-74
2023/01/17 02:36:21;;;;;;;1.23;1.00;;;;;;;1.91;100.00;95258.81;4218712;28;20131;-75
2023/01/17 02:38:46;;;;;;;1.85;1.15;;;;;;;1.86;100.00;95261.16;4215373;27;20079;-75
2023/01/17 02:41:21;;;;;;;1.80;1.10;;;;;;;1.87;100.00;95260.00;4219239;27;20051;-74
2023/01/17 02:43:23;;;;;;;1.27;1.15;;;;;;;1.85;100.00;95274.03;4218037;28;20047;-74
2023/01/17 02:45:23;;;;;;;1.43;1.07;;;;;;;1.84;100.00;95272.47;4219147;28;20040;-74
2023/01/17 02:47:27;;;;;;;1.50;1.20;;;;;;;1.85;100.00;95275.97;4216338;28;20274;-74
2023/01/17 02:49:30;;;;;;;1.30;1.20;;;;;;;1.82;100.00;95276.75;4203656;28;20510;-74
2023/01/17 02:51:55;;;;;;;1.50;1.20;;;;;;;1.88;100.00;95284.13;4210599;28;20056;-74
2023/01/17 02:54:24;;;;;;;1.95;1.38;;;;;;;1.85;100.00;95295.06;4217948;28;20051;-74
2023/01/17 02:56:37;;;;;;;2.83;1.33;;;;;;;1.89;100.00;95296.56;4210996;28;20333;-74
2023/01/17 02:58:43;;;;;;;1.90;1.42;;;;;;;1.89;100.00;95293.06;4203900;28;20032;-75
2023/01/17 03:00:49;;;;;;;3.15;1.48;;;;;;;1.90;100.00;95300.88;4205472;28;20123;-74
2023/01/17 03:03:01;;;;;;;2.00;1.50;;;;;;;1.91;100.00;95302.44;4217226;28;20104;-75
2023/01/17 03:05:10;;;;;;;3.45;1.50;;;;;;;1.88;100.00;95292.31;4202592;28;20044;-74
2023/01/17 03:07:16;;;;;;;2.00;1.25;;;;;;;1.96;100.00;95298.50;4203976;28;20135;-74
2023/01/17 03:09:18;;;;;;;4.63;1.48;;;;;;;1.96;99.67;95296.53;4203356;28;20202;-75
2023/01/17 03:11:19;;;;;;;1.77;1.30;;;;;;;1.95;99.21;95297.72;4207370;28;20036;-75
2023/01/17 03:13:19;;;;;;;1.88;1.30;;;;;;;1.96;99.56;95291.09;4219306;28;20778;-74
2023/01/17 03:15:19;;;;;;;1.55;1.27;;;;;;;1.96;98.87;95296.53;4212954;28;20036;-74
2023/01/17 03:17:21;;;;;;;1.60;1.30;;;;;;;1.95;98.96;95303.16;4203443;28;20056;-75
2023/01/17 03:19:21;;;;;;;1.20;1.10;;;;;;;1.92;99.34;95303.19;4202831;28;20040;-74
2023/01/17 03:21:22;;;;;;;3.45;1.40;;;;;;;1.91;99.52;95307.09;4208655;28;20563;-75
2023/01/17 03:23:23;;;;;;;3.78;1.63;;;;;;;1.83;99.97;95305.59;4203052;28;20055;-75
2023/01/17 03:25:23;;;;;;;1.48;1.30;;;;;;;1.82;100.00;95302.09;4211164;28;20044;-75
2023/01/17 03:27:24;;;;;;;1.77;1.30;;;;;;;1.82;99.73;95312.19;4206814;28;20370;-74
2023/01/17 03:29:24;;;;;;;3.60;1.27;;;;;;;1.89;98.23;95299.31;4202864;28;20052;-74
2023/01/17 03:31:24;;;;;;;1.92;1.30;;;;;;;1.84;98.58;95310.66;4203469;28;20492;-74
2023/01/17 03:33:25;;;;;;;4.03;1.42;;;;;;;1.88;98.54;95305.94;4202299;28;20048;-74
2023/01/17 03:35:27;;;;;;;2.05;1.50;;;;;;;1.86;98.31;95302.84;4210890;28;20404;-74
2023/01/17 03:37:27;;;;;;;2.45;1.38;;;;;;;1.88;98.20;95307.88;4217785;28;20339;-74
2023/01/17 03:39:27;;;;;;;1.40;1.30;;;;;;;1.84;98.12;95299.75;4209626;28;20062;-74
2023/01/17 03:41:27;;;;;;;1.98;1.30;;;;;;;1.85;98.72;95303.25;4218151;28;20535;-74
2023/01/17 03:43:28;;;;;;;1.70;1.33;;;;;;;1.90;97.66;95310.97;4216918;28;20510;-74
2023/01/17 03:45:28;;;;;;;3.47;1.80;;;;;;;1.87;97.24;95318.00;4208832;28;20128;-75
2023/01/17 03:47:29;;;;;;;1.60;1.20;;;;;;;1.91;96.89;95326.97;4219114;28;20039;-74
2023/01/17 03:49:30;;;;;;;2.40;1.70;;;;;;;2.00;96.33;95323.81;4216926;28;20039;-74
2023/01/17 03:51:30;;;;;;;2.88;1.55;;;;;;;1.97;96.08;95332.75;4218269;28;20046;-74
2023/01/17 03:53:30;;;;;;;2.95;1.38;;;;;;;2.03;95.89;95333.91;4217297;28;20375;-74
2023/01/17 03:55:31;;;;;;;2.67;1.60;;;;;;;1.94;96.18;95336.28;4208589;28;20042;-74
2023/01/17 03:57:31;;;;;;;2.70;1.40;;;;;;;1.95;96.26;95335.13;4203136;28;20131;-74
2023/01/17 03:59:32;;;;;;;2.78;1.95;;;;;;;1.89;96.81;95329.28;4210798;28;20123;-74
2023/01/17 04:01:33;;;;;;;2.00;1.50;;;;;;;1.86;97.51;95340.22;4206614;28;20150;-74
2023/01/17 04:03:33;;;;;;;1.95;1.67;;;;;;;1.83;96.52;95330.13;4202823;28;20036;-74
2023/01/17 04:05:34;;;;;;;3.33;1.70;;;;;;;1.84;96.16;95329.72;4218172;28;20084;-74
2023/01/17 04:07:34;;;;;;;2.47;1.23;;;;;;;1.86;95.91;95332.81;4218692;28;20398;-74
2023/01/17 04:09:34;;;;;;;3.85;1.58;;;;;;;1.79;96.18;95327.41;4208361;28;20075;-74
2023/01/17 04:11:35;;;;;;;3.58;1.40;;;;;;;1.80;96.35;95333.63;4211982;28;20050;-74
2023/01/17 04:13:35;;;;;;;2.25;1.58;;;;;;;1.76;96.88;95332.88;4206650;28;20036;-74
2023/01/17 04:15:35;;;;;;;2.83;1.48;;;;;;;1.70;96.50;95351.59;4209792;28;20160;-74
2023/01/17 04:17:36;;;;;;;1.80;1.40;;;;;;;1.67;96.95;95350.44;4203223;28;20426;-74
2023/01/17 04:19:36;;;;;;;2.72;1.98;;;;;;;1.67;97.48;95357.84;4204542;28;20450;-74
2023/01/17 04:21:37;;;;;;;1.42;1.33;;;;;;;1.68;97.68;95352.00;4203779;28;20035;-74
2023/01/17 04:23:37;;;;;;;1.90;1.45;;;;;;;1.62;98.50;95369.16;4201049;28;20365;-74
2023/01/17 04:25:38;;;;;;;2.17;1.50;;;;;;;1.61;98.44;95373.03;4200574;28;20051;-74
2023/01/17 04:27:38;;;;;;;1.77;1.40;;;;;;;1.64;98.45;95366.78;4204962;28;20165;-74
2023/01/17 04:29:39;;;;;;;1.85;1.25;;;;;;;1.67;97.69;95366.78;4206965;28;20131;-74
2023/01/17 04:31:39;;;;;;;1.40;1.10;;;;;;;1.65;97.90;95382.75;4208282;28;20036;-74
2023/01/17 04:33:39;;;;;;;1.50;1.20;;;;;;;1.61;98.65;95375.78;4216011;28;20865;-74
2023/01/17 04:35:40;;;;;;;1.95;1.27;;;;;;;1.56;98.60;95368.75;4216532;28;20063;-74
2023/01/17 04:37:41;;;;;;;2.20;1.20;;;;;;;1.61;98.63;95389.41;4212277;28;20099;-74
2023/01/17 04:39:41;;;;;;;2.22;1.30;;;;;;;1.56;99.06;95393.28;4207342;28;20043;-74
2023/01/17 04:41:42;;;;;;;1.60;1.30;;;;;;;1.53;99.67;95387.88;4212482;28;20044;-74
2023/01/17 04:43:43;;;;;;;1.30;1.20;;;;;;;1.55;99.44;95394.47;4201243;28;20131;-74
2023/01/17 04:45:43;;;;;;;1.38;1.20;;;;;;;1.52;99.79;95399.94;4205136;28;20373;-74
2023/01/17 04:47:43;;;;;;;2.70;1.40;;;;;;;1.55;99.96;95399.91;4209625;28;20443;-75
2023/01/17 04:49:44;;;;;;;2.65;1.20;;;;;;;1.49;100.00;95396.06;4214637;28;20044;-74
2023/01/17 04:51:44;;;;;;;1.35;1.00;;;;;;;1.51;99.85;95395.66;4213134;28;20388;-74
2023/01/17 04:53:44;;;;;;;2.33;1.40;;;;;;;1.46;100.00;95407.72;4201047;28;20123;-74
2023/01/17 04:55:45;;;;;;;1.52;1.13;;;;;;;1.45;100.00;95403.44;4201588;28;20508;-74
2023/01/17 04:57:46;;;;;;;1.30;1.00;;;;;;;1.46;100.00;95404.22;4204955;28;20494;-74
2023/01/17 04:59:47;;;;;;;1.42;1.10;;;;;;;1.49;100.00;95417.06;4216427;28;20068;-74
2023/01/17 05:01:48;;;;;;;1.63;1.10;;;;;;;1.47;99.84;95409.28;4216705;28;20406;-74
2023/01/17 05:03:48;;;;;;;2.92;1.50;;;;;;;1.50;99.40;95410.47;4217272;28;20135;-74
2023/01/17 05:05:49;;;;;;;1.40;1.05;;;;;;;1.44;99.56;95418.25;4217239;28;20709;-74
2023/01/17 05:07:56;;;;;;;2.75;1.45;;;;;;;1.40;99.50;95407.34;4218241;28;20094;-74
2023/01/17 05:09:58;;;;;;;2.35;1.40;;;;;;;1.41;98.82;95416.31;4216930;28;20051;-74
2023/01/17 05:11:59;;;;;;;2.58;1.20;;;;;;;1.44;98.43;95412.03;4212511;28;20473;-74
2023/01/17 05:13:59;;;;;;;2.63;1.70;;;;;;;1.38;97.94;95428.75;4203193;28;20044;-74
2023/01/17 05:15:59;;;;;;;2.05;1.30;;;;;;;1.45;96.10;95432.66;4206696;28;20525;-74
2023/01/17 05:18:00;;;;;;;2.17;1.42;;;;;;;1.51;96.48;95439.25;4217653;28;20046;-74
2023/01/17 05:20:00;;;;;;;2.25;1.38;;;;;;;1.49;96.25;95434.22;4205479;28;20465;-74
2023/01/17 05:22:02;;;;;;;2.40;1.63;;;;;;;1.47;95.54;95447.41;4210467;28;20055;-74
2023/01/17 05:24:03;;;;;;;2.00;1.50;;;;;;;1.44;95.77;95450.16;4217380;28;20032;-74
2023/01/17 05:26:03;;;;;;;2.55;1.50;;;;;;;1.42;95.29;95453.28;4204702;28;20096;-74
2023/01/17 05:28:04;;;;;;;2.20;1.70;;;;;;;1.48;95.19;95448.19;4218300;28;20118;-74
2023/01/17 05:30:05;;;;;;;2.92;1.80;;;;;;;1.47;94.93;95461.03;4210820;28;20136;-74
2023/01/17 05:32:06;;;;;;;2.10;1.90;;;;;;;1.38;95.23;95450.56;4219096;27;20312;-74
2023/01/17 05:34:06;;;;;;;1.92;1.40;;;;;;;1.40;95.27;95461.06;4217873;28;20031;-74
2023/01/17 05:36:07;;;;;;;2.78;1.40;;;;;;;1.38;95.39;95475.06;4204562;28;20034;-74
2023/01/17 05:38:07;;;;;;;1.42;1.23;;;;;;;1.31;95.10;95479.75;4204741;28;20055;-74
2023/01/17 05:40:08;;;;;;;2.03;1.70;;;;;;;1.28;95.17;95491.44;4211347;28;20055;-74
2023/01/17 05:42:08;;;;;;;2.40;1.42;;;;;;;1.21;95.50;95494.16;4218870;28;20036;-74
2023/01/17 05:44:09;;;;;;;1.75;1.40;;;;;;;1.21;95.96;95499.59;4217638;28;20115;-74
2023/01/17 05:46:09;;;;;;;3.00;1.40;;;;;;;1.15;95.67;95498.41;4208637;28;20452;-74
2023/01/17 05:48:10;;;;;;;1.52;1.25;;;;;;;1.12;95.64;95498.03;4204743;28;20547;-74
2023/01/17 05:50:12;;;;;;;1.65;1.40;;;;;;;1.10;95.46;95503.09;4204884;28;20035;-73
2023/01/17 05:52:12;;;;;;;2.40;1.52;;;;;;;1.09;95.61;95498.81;4216797;28;20039;-74
2023/01/17 05:54:13;;;;;;;2.55;1.50;;;;;;;1.05;96.54;95505.44;4213674;28;20448;-74
2023/01/17 05:56:13;;;;;;;1.90;1.65;;;;;;;1.01;95.17;95515.56;4213382;28;20089;-74
2023/01/17 05:58:16;;;;;;;2.30;1.80;;;;;;;1.01;95.12;95508.16;4204549;28;20685;-74
2023/01/17 06:00:17;;;;;;;2.40;1.60;;;;;;;0.99;94.80;95510.47;4204103;28;20375;-74
2023/01/17 06:02:18;;;;;;;3.67;1.83;;;;;;;0.98;95.43;95521.75;4215222;28;20032;-74
2023/01/17 06:04:18;;;;;;;2.60;1.50;;;;;;;1.01;93.79;95519.06;4220278;28;20031;-74
2023/01/17 06:06:19;;;;;;;4.55;2.10;;;;;;;0.95;94.27;95523.31;4179497;28;20047;-74
2023/01/17 06:08:22;;;;;;;3.88;2.00;;;;;;;0.94;94.46;95524.47;4206238;28;20028;-74
2023/01/17 06:10:22;;;;;;;;;;;;;;;0.95;94.51;95526.03;4204838;28;20044;-74
2023/01/17 06:12:23;;;;;;;1.92;1.60;;;;;;;0.97;94.69;95529.13;4217892;28;19920;-74
2023/01/17 06:14:23;;;;;;;4.72;1.60;;;;;;;0.99;94.06;95534.97;4211231;28;20396;-74
2023/01/17 06:16:23;;;;;;;1.80;1.27;;;;;;;0.98;93.90;95530.69;4207309;28;20064;-74
2023/01/17 06:18:24;;;;;;;5.07;1.52;;;;;;;0.98;93.01;95524.47;4204449;28;20032;-74
2023/01/17 06:20:24;;;;;;;2.72;1.55;;;;;;;0.95;92.58;95525.25;4205201;28;20101;-74
2023/01/17 06:22:24;;;;;;;1.63;1.20;;;;;;;0.89;92.89;95532.25;4215780;28;20126;-74
2023/01/17 06:24:26;;;;;;;5.25;1.80;;;;;;;0.83;92.72;95526.41;4218090;28;20043;-74
2023/01/17 06:26:26;;;;;;;2.40;1.25;;;;;;;0.83;93.20;95527.19;4204917;28;20383;-74
2023/01/17 06:28:26;;;;;;;3.00;1.52;;;;;;;0.74;92.89;95525.97;4210681;28;20063;-74
2023/01/17 06:30:27;;;;;;;2.85;1.50;;;;;;;0.71;93.50;95534.94;4218408;28;20531;-74
2023/01/17 06:32:27;;;;;;;3.20;1.70;;;;;;;0.64;93.40;95545.78;4203829;28;20044;-74
2023/01/17 06:34:27;;;;;;;1.52;1.38;;;;;;;0.66;93.48;95548.91;4203683;28;20151;-74
2023/01/17 06:36:28;;;;;;;3.10;1.88;;;;;;;0.59;93.78;95552.41;4210152;28;20426;-74
2023/01/17 06:38:29;;;;;;;3.72;1.98;;;;;;;0.59;93.28;95562.50;4214095;28;20043;-74
2023/01/17 06:40:29;;;;;;;1.52;1.40;;;;;;;0.56;94.06;95561.31;4202492;28;20279;-74
2023/01/17 06:42:30;;;;;;;2.42;1.73;;;;;;;0.62;93.38;95561.72;4203106;28;20127;-74
2023/01/17 06:44:30;;;;;;;2.22;1.50;;;;;;;0.61;93.61;95571.84;4211249;28;20597;-74
2023/01/17 06:46:30;;;;;;;1.75;1.33;;;;;;;0.53;94.17;95572.97;4219898;27;20038;-74
2023/01/17 06:48:31;;;;;;;2.08;1.60;;;;;;;0.47;94.01;95585.38;4217842;28;20086;-74
2023/01/17 06:50:32;;;;;;;2.30;1.45;;;;;;;0.48;93.62;95589.66;4203910;28;20052;-74
2023/01/17 06:52:32;;;;;;;3.63;1.70;;;;;;;0.52;93.75;95591.25;4203214;28;20086;-74
2023/01/17 06:54:33;;;;;;;2.50;1.67;;;;;;;0.47;93.72;95588.88;4213145;28;20040;-74
2023/01/17 06:56:33;;;;;;;2.47;1.73;;;;;;;0.45;93.87;95593.16;4219383;28;20399;-74
2023/01/17 06:58:34;;;;;;;2.67;1.80;;;;;;;0.43;93.87;95596.25;4216411;28;20048;-74
2023/01/17 07:00:34;;;;;;;2.72;1.90;;;;;;;0.43;93.31;95603.63;4203690;28;20044;-74
2023/01/17 07:02:34;;;;;;;2.95;1.90;;;;;;;0.44;93.28;95599.75;4202983;28;20032;-74
2023/01/17 07:04:35;;;;;;;3.47;1.63;;;;;;;0.52;91.99;95604.84;4203653;28;20101;-74
2023/01/17 07:06:36;;;;;;;2.60;1.50;;;;;;;0.46;91.92;95600.91;4203617;28;20422;-74
2023/01/17 07:08:36;;;;;;;3.47;1.40;;;;;;;0.58;90.97;95613.44;4218689;28;20079;-74
2023/01/17 07:10:36;;;;;;;2.08;1.40;;;;;;;0.52;91.67;95615.72;4219350;28;20044;-74
2023/01/17 07:12:37;;;;;;;1.95;1.52;;;;;;;0.47;91.88;95610.63;4216998;28;20063;-74
2023/01/17 07:14:37;;;;;;;2.95;1.60;;;;;;;0.44;92.31;95608.69;4219316;28;20046;-74
2023/01/17 07:16:37;;;;;;;3.25;1.50;;;;;;;0.40;92.36;95616.03;4212812;28;20170;-74
2023/01/17 07:18:38;;;;;;;2.25;1.35;;;;;;;0.43;92.13;95615.28;4209034;27;20547;-74
2023/01/17 07:20:38;;;;;;;3.00;1.33;;;;;;;0.43;91.88;95617.25;4203153;28;20052;-74
2023/01/17 07:22:38;;;;;;;2.72;1.50;;;;;;;0.36;91.90;95617.97;4204252;28;20067;-74
2023/01/17 07:24:39;;;;;;;3.10;1.63;;;;;;;0.38;91.71;95612.16;4219743;28;20036;-74
2023/01/17 07:26:39;;;;;;;2.13;1.50;;;;;;;0.38;91.76;95614.88;4217109;28;20046;-74
2023/01/17 07:28:39;;;;;;;2.25;1.67;;;;;;;0.37;91.47;95618.75;4219060;28;20054;-74
2023/01/17 07:30:40;;;;;;;3.33;1.65;;;;;;;0.38;91.43;95617.59;4218785;28;20044;-74
2023/01/17 07:32:40;;;;;;;2.08;1.50;;;;;;;0.36;92.08;95611.75;4214712;28;20040;-74
2023/01/17 07:34:40;;;;;;;1.95;1.38;;;;;;;0.31;91.09;95612.88;4212366;28;20140;-74
2023/01/17 07:36:41;;;;;;;2.92;1.80;;;;;;;0.35;91.77;95612.94;4211399;27;20125;-74
2023/01/17 07:38:43;;;;;;;3.50;1.63;;;;;;;0.34;90.59;95612.16;4203115;28;20051;-74
2023/01/17 07:40:45;;;;;;;2.30;1.48;;;;;;;0.36;91.02;95620.69;4202571;28;20131;-74
2023/01/17 07:42:45;;;;;;;2.17;1.60;;;;;;;0.38;89.54;95610.22;4202641;28;20563;-74
2023/01/17 07:44:46;;;;;;;1.98;1.40;;;;;;;0.43;88.62;95611.81;4203077;28;20395;-74
2023/01/17 07:46:46;;;;;;;4.65;1.70;;;;;;;0.44;88.98;95602.47;4204850;28;20206;-74
2023/01/17 07:48:47;;;;;;;2.38;1.60;;;;;;;0.38;89.50;95620.31;4206544;28;20634;-74
2023/01/17 07:50:54;;;;;;;1.52;1.30;;;;;;;0.35;89.42;95621.88;4202928;28;20055;-74
2023/01/17 07:52:55;;;;;;;1.73;1.50;;;;;;;0.36;88.86;95615.25;4201773;28;20032;-74
2023/01/17 07:54:55;;;;;;;2.28;1.60;;;;;;;0.36;88.79;95626.13;4202853;28;20051;-74
2023/01/17 07:56:55;;;;;;;2.00;1.38;;;;;;;0.38;88.77;95623.81;4207033;28;20886;-74
2023/01/17 07:58:56;;;;;;;2.00;1.27;;;;;;;0.37;88.94;95624.19;4217885;28;20040;-74
2023/01/17 08:01:08;;;;;;;2.30;1.42;;;;;;;0.44;87.27;95629.69;4217868;28;20105;-74
2023/01/17 08:03:12;;;;;;;1.85;1.45;;;;;;;0.39;88.06;95627.31;4217102;28;20370;-74
2023/01/17 08:05:12;;;;;;;3.05;1.65;;;;;;;0.37;87.97;95638.56;4219277;28;20499;-74
2023/01/17 08:07:13;;;;;;;6.63;3.47;;;;;;;0.39;87.78;95644.41;4211492;28;20085;-74
2023/01/17 08:09:14;;;;;;;5.60;3.00;;;;;;;0.36;88.28;95645.19;4210166;28;20358;-74
2023/01/17 08:11:14;;;;;;;5.40;2.92;;;;;;;0.37;87.64;95637.78;4218342;28;20055;-74
2023/01/17 08:13:14;;;;;;;6.75;3.30;;;;;;;0.33;88.42;95648.63;4217378;28;20052;-74
2023/01/17 08:15:16;;;;;;;3.20;2.45;;;;;;;0.31;89.49;95650.97;4213577;28;20167;-74
2023/01/17 08:17:17;;;;;;;6.63;5.68;;;;;;;0.39;88.88;95658.00;4202646;28;20166;-74
2023/01/17 08:19:18;;;;;;;5.28;4.38;;;;;;;0.34;88.93;95652.94;4203880;28;20074;-74
2023/01/17 08:21:18;;;;;;;1.60;1.50;;;;;;;0.31;88.88;95656.41;4216454;28;20467;-74
2023/01/17 08:23:19;;;;;;;5.47;2.00;;;;;;;0.38;87.60;95653.72;4216907;28;20112;-74
2023/01/17 08:25:19;;;;;;;3.17;1.83;;;;;;;0.45;87.30;95650.28;4218544;28;20055;-74
2023/01/17 08:27:20;;;;;;;2.85;1.80;;;;;;;0.47;87.80;95650.66;4202021;28;20492;-74
2023/01/17 08:29:21;;;;;;;2.13;1.60;;;;;;;0.46;88.23;95655.31;4202561;28;20258;-74
2023/01/17 08:31:22;;;;;;;2.47;1.65;;;;;;;0.44;87.73;95646.78;4209014;28;20104;-74
2023/01/17 08:33:22;;;;;;;3.08;1.40;;;;;;;0.45;87.45;95659.22;4211717;28;20453;-74
2023/01/17 08:35:22;;;;;;;2.42;1.42;;;;;;;0.50;86.67;95661.59;4202337;28;20480;-74
2023/01/17 08:37:23;;;;;;;2.10;1.40;;;;;;;0.63;85.89;95661.25;4202232;28;20088;-74
2023/01/17 08:39:26;;;;;;;1.50;1.40;;;;;;;0.64;86.06;95670.97;4202468;28;20155;-74
2023/01/17 08:41:26;;;;;;;;;;;;;;;0.69;86.32;95670.59;4210579;28;20048;-74
2023/01/17 08:43:27;;;;;;;2.72;1.70;;;;;;;0.72;85.95;95676.06;4201616;28;20781;-74
2023/01/17 08:45:28;;;;;;;3.75;1.55;;;;;;;0.69;85.59;95673.31;4202560;28;20036;-74
2023/01/17 08:47:28;;;;;;;1.83;1.48;;;;;;;0.66;86.40;95676.78;4202786;28;20070;-74
2023/01/17 08:49:28;;;;;;;2.60;1.70;;;;;;;0.70;86.16;95680.31;4207471;28;20540;-74
2023/01/17 08:51:30;;;;;;;1.67;1.25;;;;;;;0.76;85.53;95678.81;4220989;28;20147;-74
2023/01/17 08:53:30;;;;;;;6.73;2.33;;;;;;;0.75;85.19;95685.41;4220966;28;20051;-74
2023/01/17 08:55:32;;;;;;;5.05;2.85;;;;;;;0.77;85.14;95683.88;4212027;28;20048;-74
2023/01/17 08:57:32;;;;;;;2.38;1.48;;;;;;;0.78;85.64;95682.69;4205591;28;20051;-74
2023/01/17 08:59:33;;;;;;;2.13;1.85;;;;;;;0.76;86.55;95690.47;4206085;28;20468;-74
2023/01/17 09:01:39;;;;;;;2.78;1.60;;;;;;;0.81;85.90;95690.09;4222171;28;20105;-74
2023/01/17 09:03:39;;;;;;;4.50;1.80;;;;;;;0.88;85.02;95697.50;4219709;28;20032;-74
2023/01/17 09:05:40;;;;;;;3.33;1.73;;;;;;;0.84;85.15;95694.78;4214226;27;20349;-74
2023/01/17 09:07:40;;;;;;;2.80;2.10;;;;;;;0.83;85.57;95700.63;4221139;28;20043;-74
2023/01/17 09:09:40;;;;;;;2.00;1.70;;;;;;;0.79;86.21;95699.81;4220647;28;21190;-74
2023/01/17 09:11:41;;;;;;;2.00;1.70;;;;;;;0.82;85.84;95699.81;4220584;27;20052;-74
2023/01/17 09:13:41;;;;;;;2.70;1.60;;;;;;;0.82;85.43;95705.25;4219971;28;20344;-74
2023/01/17 09:15:42;;;;;;;2.90;2.10;;;;;;;0.80;86.46;95712.25;4210083;28;20759;-74
2023/01/17 09:17:42;;;;;;;4.40;2.30;;;;;;;0.78;85.51;95709.13;4205739;28;20044;-74
2023/01/17 09:19:44;;;;;;;3.45;2.40;;;;;;;0.75;85.85;95701.75;4205118;28;20334;-74
2023/01/17 09:21:44;;;;;;;5.43;2.85;;;;;;;0.76;86.54;95719.63;4205239;28;20091;-74
2023/01/17 09:23:44;;;;;;;2.72;1.88;;;;;;;0.75;86.44;95718.06;4204755;28;20044;-74
2023/01/17 09:25:51;;;;;;;2.25;1.80;;;;;;;0.78;86.51;95717.31;4205147;28;20039;-74
2023/01/17 09:27:51;;;;;;;3.72;1.60;;;;;;;0.77;87.00;95723.91;4206695;28;20040;-74
2023/01/17 09:29:51;;;;;;;2.63;1.83;;;;;;;0.83;86.04;95725.13;4209203;28;20132;-74
2023/01/17 09:31:52;;;;;;;3.72;1.50;;;;;;;0.87;86.33;95712.28;4214193;28;20047;-74
2023/01/17 09:33:53;;;;;;;3.65;2.05;;;;;;;0.90;85.55;95718.91;4215363;28;20078;-74
2023/01/17 09:35:54;;;;;;;3.17;2.03;;;;;;;0.90;85.74;95711.50;4204875;28;20203;-74
2023/01/17 09:37:54;;;;;;;4.90;1.90;;;;;;;0.94;85.60;95712.31;4204607;28;20044;-74
2023/01/17 09:39:54;;;;;;;3.17;1.92;;;;;;;1.02;85.79;95724.81;4216686;28;20291;-74
2023/01/17 09:42:16;;;;;;;1.92;1.63;;;;;;;1.01;85.66;95711.56;4220381;28;20427;-74
2023/01/17 09:44:22;;;;;;;2.45;1.80;;;;;;;1.08;85.17;95719.78;4218040;28;20439;-74
2023/01/17 09:46:28;;;;;;;3.60;1.55;;;;;;;1.02;85.05;95713.91;4220217;28;20049;-74
2023/01/17 09:48:38;;;;;;;3.45;1.40;;;;;;;1.03;84.76;95720.13;4219421;28;20043;-74
2023/01/17 09:51:06;;;;;;;2.25;1.60;;;;;;;1.01;84.65;95709.63;4204438;28;20137;-74
2023/01/17 09:53:14;;;;;;;2.00;1.70;;;;;;;1.04;84.70;95713.53;4204180;28;20146;-74
2023/01/17 09:55:16;;;;;;;3.60;1.58;;;;;;;1.06;84.40;95716.63;4219632;28;20420;-74
2023/01/17 09:57:17;;;;;;;1.83;1.60;;;;;;;1.13;84.44;95719.41;4208493;27;20044;-74
2023/01/17 09:59:38;;;;;;;3.10;2.08;;;;;;;1.09;85.21;95730.28;4207214;28;20036;-74
2023/01/17 10:01:46;;;;;;;2.55;1.90;;;;;;;1.09;84.89;95729.50;4204925;28;20166;-74
2023/01/17 10:04:02;;;;;;;4.25;1.77;;;;;;;1.16;85.66;95734.97;4200855;28;20044;-74
2023/01/17 10:06:25;;;;;;;3.40;1.92;;;;;;;1.21;84.93;95737.31;4204495;28;20141;-73
2023/01/17 10:08:47;;;;;;;6.28;1.90;;;;;;;1.28;84.45;95744.75;4172015;28;20445;-74
2023/01/17 10:11:23;;;;;;;4.05;1.98;;;;;;;1.30;84.47;95740.47;4219080;28;20509;-74
2023/01/17 10:13:43;;;;;;;3.67;2.03;;;;;;;1.31;84.36;95739.28;4192165;28;20071;-74
2023/01/17 10:16:08;;;;;;;2.65;2.00;;;;;;;1.32;84.02;95738.13;4212094;28;20503;-74
2023/01/17 10:18:18;;;;;;;3.35;1.98;;;;;;;1.35;84.28;95734.66;4202670;28;20052;-74
2023/01/17 10:20:41;;;;;;;3.80;3.05;;;;;;;1.37;84.69;95729.59;4203619;28;20075;-74
2023/01/17 10:22:56;;;;;;;4.03;2.17;;;;;;;1.44;84.02;95726.13;4203573;28;20884;-74
2023/01/17 10:25:44;;;;;;;2.83;1.83;;;;;;;1.54;82.09;95732.75;4203706;28;20040;-74
2023/01/17 10:27:57;;;;;;;8.40;2.75;;;;;;;1.44;82.54;95733.50;4135557;28;20103;-74
2023/01/17 10:29:59;;;;;;;4.38;2.13;;;;;;;1.37;82.98;95734.25;4135955;28;20046;-74
2023/01/17 10:32:01;;;;;;;4.80;2.67;;;;;;;1.33;83.26;95733.50;4123316;28;20046;-74
2023/01/17 10:34:17;;;;;;;3.47;2.20;;;;;;;1.35;83.61;95726.47;4212383;28;20046;-74
2023/01/17 10:36:26;;;;;;;4.25;2.35;;;;;;;1.29;82.81;95719.84;4203861;28;20036;-74
2023/01/17 10:38:37;;;;;;;2.58;1.70;;;;;;;1.23;83.60;95712.41;4203520;28;20383;-74
2023/01/17 10:40:53;;;;;;;3.97;2.22;;;;;;;1.18;83.22;95716.31;4204175;28;20483;-74
2023/01/17 10:43:02;;;;;;;3.22;2.00;;;;;;;1.13;83.25;95700.31;4214946;28;20031;-74
2023/01/17 10:45:27;;;;;;;3.45;1.90;;;;;;;1.06;84.02;95701.06;4213490;28;20123;-74
2023/01/17 10:47:33;;;;;;;3.55;1.90;;;;;;;1.05;83.74;95702.25;4210688;28;20097;-74
2023/01/17 10:49:33;;;;;;;4.50;2.35;;;;;;;1.04;83.72;95705.34;4203715;28;20657;-74
2023/01/17 10:51:41;;;;;;;3.92;2.08;;;;;;;1.09;83.57;95708.50;4203743;28;20028;-74
2023/01/17 10:54:11;;;;;;;1.60;1.48;;;;;;;1.10;83.21;95703.84;4208418;28;20035;-74
2023/01/17 10:56:19;;;;;;;2.15;1.50;;;;;;;1.17;82.69;95697.63;4201425;28;20275;-74
2023/01/17 10:58:20;;;;;;;3.97;1.80;;;;;;;1.13;83.22;95716.66;4217740;28;20025;-74
2023/01/17 11:00:29;;;;;;;3.58;1.98;;;;;;;1.11;83.49;95706.16;4219138;28;20085;-74
2023/01/17 11:02:35;;;;;;;6.47;2.35;;;;;;;1.03;83.45;95714.69;4203212;28;20526;-74
2023/01/17 11:04:39;;;;;;;9.27;3.85;;;;;;;0.96;83.56;95714.66;4203151;28;20071;-74
2023/01/17 11:06:41;;;;;;;14.32;5.47;;;;;;;0.95;84.60;95722.03;4209007;28;20138;-73
2023/01/17 11:08:53;;;;;;;9.82;5.40;;;;;;;0.94;84.66;95730.59;4216011;28;20047;-74
2023/01/17 11:10:53;;;;;;;10.02;4.43;;;;;;;0.88;84.71;95732.13;4206002;28;20047;-74